Time;durP1;ratioP1;P1;durP2;ratioP2;P2;SDS_P1;SDS_P2;PMS_P1;PMS_P2;Temp;Humidity;BMP_temperature;BMP_pressure;BME280_temperature;BME280_humidity;BME280_pressure;Samples;Min_cycle;Max_cycle;Signal;HPM_P1;HPM_P2
2022/08/20 00:01:52;;;;;;;1.00;1.00;;;20.90;99.90;;;;;;5036817;28;20572;-61
2022/08/20 00:04:19;;;;;;;1.00;1.00;;;21.00;99.90;;;;;;5038173;28;20206;-61
2022/08/20 00:06:47;;;;;;;1.00;1.00;;;21.00;99.90;;;;;;5039165;28;20220;-61
2022/08/20 00:09:14;;;;;;;1.03;1.03;;;21.00;99.90;;;;;;5035544;28;20232;-62
2022/08/20 00:11:41;;;;;;;1.10;1.10;;;20.90;99.90;;;;;;5038198;28;20200;-61
2022/08/20 00:14:08;;;;;;;1.00;1.00;;;20.90;99.90;;;;;;5037132;28;20292;-61
2022/08/20 00:16:37;;;;;;;1.17;1.10;;;20.90;99.90;;;;;;5036007;28;20211;-62
2022/08/20 00:19:07;;;;;;;1.20;1.20;;;20.90;99.90;;;;;;5038050;28;20220;-62
2022/08/20 00:21:35;;;;;;;1.23;1.23;;;20.90;99.90;;;;;;5030146;28;20200;-61
2022/08/20 00:24:03;;;;;;;1.10;1.10;;;20.90;99.90;;;;;;5035070;28;20201;-61
2022/08/20 00:26:30;;;;;;;1.27;1.23;;;20.90;99.90;;;;;;5033707;28;20224;-62
2022/08/20 00:28:57;;;;;;;1.10;1.10;;;20.90;99.90;;;;;;5034943;28;20315;-62
2022/08/20 00:31:25;;;;;;;0.90;0.90;;;21.00;99.90;;;;;;5034590;28;20211;-61
2022/08/20 00:33:53;;;;;;;1.03;1.00;;;21.00;99.90;;;;;;5034593;28;20203;-61
2022/08/20 00:36:21;;;;;;;1.00;1.00;;;20.90;99.90;;;;;;5033804;28;20232;-61
2022/08/20 00:38:48;;;;;;;1.10;1.10;;;21.00;99.90;;;;;;5034869;28;20224;-61
2022/08/20 00:41:18;;;;;;;1.07;1.07;;;21.10;99.90;;;;;;5034720;28;20204;-62
2022/08/20 00:43:48;;;;;;;1.00;1.00;;;21.10;99.90;;;;;;5034849;28;20219;-62
2022/08/20 00:46:18;;;;;;;1.10;1.10;;;21.20;99.90;;;;;;5033791;28;20228;-61
2022/08/20 00:48:47;;;;;;;1.02;1.02;;;21.10;99.90;;;;;;5032942;28;20224;-61
2022/08/20 00:51:23;;;;;;;1.20;1.20;;;21.10;99.90;;;;;;5035840;28;20205;-60
2022/08/20 00:53:51;;;;;;;1.17;1.17;;;21.10;99.90;;;;;;5038976;28;20272;-61
2022/08/20 00:56:18;;;;;;;1.60;1.20;;;21.00;99.90;;;;;;5035276;28;20221;-61
2022/08/20 00:58:45;;;;;;;1.10;1.10;;;21.00;99.90;;;;;;5035922;28;20227;-60
2022/08/20 01:01:13;;;;;;;1.00;1.00;;;21.10;99.90;;;;;;5034624;28;20863;-60
2022/08/20 01:03:41;;;;;;;0.93;0.93;;;21.10;99.90;;;;;;5033074;28;20291;-61
2022/08/20 01:06:10;;;;;;;0.90;0.90;;;21.00;99.90;;;;;;5033717;28;20327;-61
2022/08/20 01:08:39;;;;;;;1.00;1.00;;;21.10;99.90;;;;;;5034540;28;20590;-62
2022/08/20 01:11:09;;;;;;;1.20;1.20;;;21.10;99.90;;;;;;5034460;28;20675;-61
2022/08/20 01:13:37;;;;;;;0.90;0.90;;;21.20;99.90;;;;;;5034775;28;20207;-61
2022/08/20 01:16:10;;;;;;;1.00;1.00;;;21.20;99.90;;;;;;5033095;28;20204;-60
2022/08/20 01:18:38;;;;;;;0.93;0.93;;;21.20;99.90;;;;;;5032500;28;20232;-61
2022/08/20 01:21:07;;;;;;;0.80;0.80;;;21.20;99.90;;;;;;5033837;28;20316;-62
2022/08/20 01:23:43;;;;;;;1.00;1.00;;;21.20;99.90;;;;;;5034103;28;20205;-60
2022/08/20 01:26:14;;;;;;;1.00;1.00;;;21.20;99.90;;;;;;5033374;28;20216;-61
2022/08/20 01:28:43;;;;;;;1.00;1.00;;;21.20;99.90;;;;;;5034202;28;20601;-60
2022/08/20 01:31:14;;;;;;;0.80;0.80;;;21.20;99.90;;;;;;5034072;28;20200;-60
2022/08/20 01:33:41;;;;;;;0.80;0.80;;;21.20;99.90;;;;;;5033540;28;20228;-60
2022/08/20 01:36:09;;;;;;;0.90;0.90;;;21.20;99.90;;;;;;5032956;28;20260;-61
2022/08/20 01:38:36;;;;;;;0.80;0.80;;;21.10;99.90;;;;;;5037499;28;20286;-61
2022/08/20 01:41:44;;;;;;;0.97;0.97;;;21.00;99.90;;;;;;5033927;28;20283;-63
2022/08/20 01:44:12;;;;;;;1.00;0.90;;;21.00;99.90;;;;;;5018206;28;20223;-60
2022/08/20 01:46:43;;;;;;;0.90;0.90;;;21.10;99.90;;;;;;5033379;28;20215;-62
2022/08/20 01:49:12;;;;;;;0.90;0.90;;;21.10;99.90;;;;;;5032513;28;20318;-62
2022/08/20 01:51:40;;;;;;;1.10;1.10;;;21.00;99.90;;;;;;5033423;28;20201;-62
2022/08/20 01:54:08;;;;;;;0.97;0.97;;;21.10;99.90;;;;;;5029630;28;20266;-62
2022/08/20 01:56:36;;;;;;;1.00;1.00;;;21.10;99.90;;;;;;5032535;28;20243;-62
2022/08/20 01:59:06;;;;;;;0.90;0.90;;;21.00;99.90;;;;;;5032991;28;20229;-61
2022/08/20 02:01:38;;;;;;;0.70;0.70;;;21.10;99.90;;;;;;5034025;28;20197;-61
2022/08/20 02:04:07;;;;;;;0.80;0.80;;;21.00;99.90;;;;;;5033330;28;20656;-62
2022/08/20 02:06:42;;;;;;;0.90;0.90;;;21.00;99.90;;;;;;5033519;28;20222;-62
2022/08/20 02:09:10;;;;;;;0.90;0.90;;;21.00;99.90;;;;;;5033456;28;20242;-61
2022/08/20 02:11:38;;;;;;;0.90;0.90;;;21.00;99.90;;;;;;5032947;28;20676;-62
2022/08/20 02:14:07;;;;;;;0.93;0.90;;;21.00;99.90;;;;;;5032701;28;20569;-61
2022/08/20 02:16:38;;;;;;;0.90;0.90;;;21.10;99.90;;;;;;5030599;28;20208;-62
2022/08/20 02:19:11;;;;;;;0.90;0.90;;;21.20;99.90;;;;;;5021402;28;20249;-61
2022/08/20 02:21:43;;;;;;;0.80;0.80;;;21.20;99.90;;;;;;5028262;28;20288;-62
2022/08/20 02:24:10;;;;;;;0.87;0.87;;;21.20;99.90;;;;;;5027446;28;20228;-61
2022/08/20 02:26:37;;;;;;;1.10;1.10;;;21.10;99.90;;;;;;5020681;28;20243;-61
2022/08/20 02:29:06;;;;;;;0.90;0.90;;;21.10;99.90;;;;;;5031272;28;20251;-61
2022/08/20 02:31:36;;;;;;;0.80;0.80;;;21.10;99.90;;;;;;5029363;28;20300;-61
2022/08/20 02:34:03;;;;;;;0.93;0.93;;;21.10;99.90;;;;;;5031153;28;20209;-61
2022/08/20 02:36:32;;;;;;;1.17;0.83;;;21.10;99.90;;;;;;5025898;28;20201;-60
2022/08/20 02:38:59;;;;;;;0.80;0.80;;;21.20;99.90;;;;;;5022213;28;20704;-61
2022/08/20 02:41:26;;;;;;;0.80;0.80;;;21.20;99.90;;;;;;5019063;28;20197;-61
2022/08/20 02:43:52;;;;;;;0.90;0.90;;;21.10;99.90;;;;;;5022892;28;20666;-61
2022/08/20 02:46:19;;;;;;;1.03;1.03;;;21.10;99.90;;;;;;5030242;28;20580;-61
2022/08/20 02:48:47;;;;;;;1.00;1.00;;;21.00;99.90;;;;;;5030080;28;20221;-61
2022/08/20 02:51:14;;;;;;;0.90;0.90;;;21.00;99.90;;;;;;5032417;28;20569;-61
2022/08/20 02:53:42;;;;;;;1.00;1.00;;;21.00;99.90;;;;;;5032110;28;20291;-62
2022/08/20 02:56:09;;;;;;;0.83;0.83;;;21.00;99.90;;;;;;5031341;28;20201;-61
2022/08/20 02:58:36;;;;;;;0.83;0.83;;;21.00;99.90;;;;;;5031989;28;20303;-62
2022/08/20 03:01:06;;;;;;;1.00;1.00;;;20.90;99.90;;;;;;5031888;28;20228;-62
2022/08/20 03:03:33;;;;;;;1.00;1.00;;;21.00;99.90;;;;;;5029485;28;20287;-62
2022/08/20 03:06:03;;;;;;;1.00;1.00;;;20.90;99.90;;;;;;5031485;28;20280;-62
2022/08/20 03:08:30;;;;;;;0.90;0.90;;;20.90;99.90;;;;;;5031140;28;20691;-62
2022/08/20 03:10:57;;;;;;;0.73;0.73;;;20.90;99.90;;;;;;5031852;28;20295;-61
2022/08/20 03:13:26;;;;;;;0.73;0.73;;;20.90;99.90;;;;;;5031535;28;20292;-61
2022/08/20 03:15:55;;;;;;;0.90;0.90;;;20.90;99.90;;;;;;5031165;28;20212;-61
2022/08/20 03:18:24;;;;;;;0.80;0.80;;;20.80;99.90;;;;;;5030513;28;20669;-61
2022/08/20 03:20:51;;;;;;;0.80;0.80;;;20.80;99.90;;;;;;5031998;28;20208;-62
2022/08/20 03:23:21;;;;;;;0.77;0.77;;;20.80;99.90;;;;;;5031384;28;20243;-62
2022/08/20 03:25:48;;;;;;;0.90;0.90;;;20.80;99.90;;;;;;5030818;28;20208;-61
2022/08/20 03:28:16;;;;;;;0.93;0.93;;;20.80;99.90;;;;;;5031230;28;20232;-61
2022/08/20 03:30:43;;;;;;;0.97;0.97;;;20.80;99.90;;;;;;5025424;28;20295;-61
2022/08/20 03:33:10;;;;;;;0.90;0.90;;;20.80;99.90;;;;;;5031871;28;20318;-61
2022/08/20 03:35:38;;;;;;;0.90;0.90;;;20.80;99.90;;;;;;5030681;28;20215;-61
2022/08/20 03:38:10;;;;;;;0.93;0.93;;;20.80;99.90;;;;;;5031742;28;20225;-59
2022/08/20 03:40:38;;;;;;;0.90;0.90;;;20.80;99.90;;;;;;5036587;28;20272;-59
2022/08/20 03:43:10;;;;;;;0.83;0.83;;;20.80;99.90;;;;;;5033562;28;20207;-62
2022/08/20 03:45:38;;;;;;;0.87;0.87;;;20.80;99.90;;;;;;5031191;28;20670;-60
2022/08/20 03:48:07;;;;;;;0.90;0.90;;;20.80;99.90;;;;;;5030259;28;20311;-60
2022/08/20 03:50:35;;;;;;;0.63;0.63;;;20.80;99.90;;;;;;5031918;28;20208;-59
2022/08/20 03:53:02;;;;;;;0.90;0.90;;;20.80;99.90;;;;;;5031792;28;20210;-61
2022/08/20 03:55:31;;;;;;;0.90;0.90;;;20.80;99.90;;;;;;5030878;28;20197;-62
2022/08/20 03:58:01;;;;;;;1.13;0.90;;;20.80;99.90;;;;;;5018874;28;20611;-61
2022/08/20 04:00:30;;;;;;;1.00;1.00;;;20.80;99.90;;;;;;5031658;28;20207;-62
2022/08/20 04:02:58;;;;;;;0.90;0.90;;;20.80;99.90;;;;;;5032005;28;20200;-61
2022/08/20 04:05:25;;;;;;;0.90;0.90;;;20.80;99.90;;;;;;5031308;28;20212;-61
2022/08/20 04:07:52;;;;;;;0.80;0.80;;;20.80;99.90;;;;;;5031545;28;20234;-61
2022/08/20 04:10:19;;;;;;;1.13;1.10;;;20.80;99.90;;;;;;5029929;28;20212;-62
2022/08/20 04:12:46;;;;;;;0.80;0.80;;;20.70;99.90;;;;;;5031151;28;20738;-61
2022/08/20 04:15:17;;;;;;;0.88;0.88;;;20.80;99.90;;;;;;5030870;28;20211;-61
2022/08/20 04:17:46;;;;;;;0.90;0.90;;;20.80;99.90;;;;;;5030274;28;20858;-60
2022/08/20 04:20:17;;;;;;;0.70;0.70;;;20.80;99.90;;;;;;5030948;28;20231;-60
2022/08/20 04:22:46;;;;;;;0.90;0.90;;;20.80;99.90;;;;;;5031635;28;20196;-59
2022/08/20 04:25:13;;;;;;;0.90;0.90;;;20.80;99.90;;;;;;5031017;28;20686;-63
2022/08/20 04:27:41;;;;;;;0.90;0.90;;;20.80;99.90;;;;;;5031448;28;20697;-60
2022/08/20 04:30:11;;;;;;;1.70;1.10;;;20.80;99.90;;;;;;5032086;28;20215;-60
2022/08/20 04:32:40;;;;;;;0.70;0.70;;;20.80;99.90;;;;;;5032981;28;20291;-60
2022/08/20 04:35:10;;;;;;;0.80;0.80;;;20.80;99.90;;;;;;5032863;28;20217;-60
2022/08/20 04:37:38;;;;;;;0.83;0.83;;;20.90;99.90;;;;;;5036866;28;20205;-60
2022/08/20 04:42:52;;;;;;;0.90;0.90;;;20.90;99.90;;;;;;5032212;28;20674;-59
2022/08/20 04:45:20;;;;;;;0.90;0.90;;;20.90;99.90;;;;;;5035300;28;20291;-60
2022/08/20 04:47:49;;;;;;;0.80;0.80;;;20.90;99.90;;;;;;5034580;28;20252;-60
2022/08/20 04:50:18;;;;;;;0.70;0.70;;;20.90;99.90;;;;;;5034011;28;20205;-60
2022/08/20 04:52:47;;;;;;;0.90;0.90;;;20.90;99.90;;;;;;5034760;28;20690;-60
2022/08/20 04:55:15;;;;;;;0.73;0.73;;;20.90;99.90;;;;;;5034082;28;20205;-61
2022/08/20 04:57:42;;;;;;;0.80;0.80;;;21.00;99.90;;;;;;5034053;28;20287;-61
2022/08/20 05:00:13;;;;;;;0.90;0.90;;;21.00;99.90;;;;;;5034522;28;20209;-60
2022/08/20 05:02:39;;;;;;;0.90;0.90;;;21.00;99.90;;;;;;5034614;28;20209;-60
2022/08/20 05:05:09;;;;;;;0.80;0.80;;;21.00;99.90;;;;;;5033571;28;20207;-61
2022/08/20 05:07:40;;;;;;;0.80;0.80;;;21.00;99.90;;;;;;5033625;28;20311;-60
2022/08/20 05:10:09;;;;;;;0.80;0.80;;;21.10;99.90;;;;;;5033702;28;20232;-60
2022/08/20 05:12:36;;;;;;;2.00;1.10;;;21.10;99.90;;;;;;5034365;28;20197;-60
2022/08/20 05:15:03;;;;;;;0.70;0.70;;;21.10;99.90;;;;;;5032961;28;20556;-60
2022/08/20 05:17:30;;;;;;;0.80;0.80;;;21.20;99.90;;;;;;5033634;28;20686;-60
2022/08/20 05:19:58;;;;;;;0.85;0.85;;;21.20;99.90;;;;;;5032911;28;20227;-60
2022/08/20 05:22:27;;;;;;;0.90;0.90;;;21.20;99.90;;;;;;5033901;28;20200;-61
2022/08/20 05:24:55;;;;;;;0.90;0.90;;;21.20;99.90;;;;;;5033083;28;20212;-59
2022/08/20 05:27:25;;;;;;;0.70;0.70;;;21.20;99.90;;;;;;5029906;28;20224;-61
2022/08/20 05:29:53;;;;;;;0.80;0.80;;;21.30;99.90;;;;;;5033466;28;20224;-61
2022/08/20 05:32:20;;;;;;;0.90;0.90;;;21.30;99.90;;;;;;5032873;28;20212;-60
2022/08/20 05:34:47;;;;;;;0.80;0.80;;;21.30;99.90;;;;;;5032982;28;20213;-60
2022/08/20 05:37:16;;;;;;;0.63;0.63;;;21.30;99.90;;;;;;5032750;28;20200;-60
2022/08/20 05:39:44;;;;;;;0.80;0.80;;;21.40;99.90;;;;;;5032336;28;20231;-60
2022/08/20 05:42:11;;;;;;;0.80;0.80;;;21.40;99.90;;;;;;5030114;28;20200;-60
2022/08/20 05:44:38;;;;;;;0.90;0.90;;;21.50;99.90;;;;;;5027636;28;20796;-61
2022/08/20 05:47:05;;;;;;;1.10;1.10;;;21.50;99.90;;;;;;5032166;28;20574;-60
2022/08/20 05:49:32;;;;;;;0.90;0.90;;;21.50;99.90;;;;;;5028596;28;20316;-60
2022/08/20 05:51:59;;;;;;;1.00;1.00;;;21.40;99.90;;;;;;5033151;28;20220;-60
2022/08/20 05:54:26;;;;;;;1.17;1.17;;;21.50;99.90;;;;;;5032683;28;20296;-60
2022/08/20 05:56:56;;;;;;;1.30;1.30;;;21.50;99.90;;;;;;5033553;28;20295;-60
2022/08/20 05:59:23;;;;;;;1.30;1.30;;;21.40;99.90;;;;;;5033088;28;20221;-59
2022/08/20 06:01:51;;;;;;;1.42;1.42;;;21.40;99.90;;;;;;5032702;28;20274;-62
2022/08/20 06:04:23;;;;;;;1.20;1.20;;;21.50;99.90;;;;;;5029683;28;20292;-62
2022/08/20 06:06:51;;;;;;;1.30;1.30;;;21.50;99.90;;;;;;5029437;28;20203;-61
2022/08/20 06:09:21;;;;;;;1.10;1.10;;;21.50;99.90;;;;;;5032237;28;20231;-62
2022/08/20 06:11:48;;;;;;;1.37;1.37;;;21.50;99.90;;;;;;5027025;28;20723;-61
2022/08/20 06:14:19;;;;;;;1.30;1.30;;;21.50;99.90;;;;;;5031779;28;20204;-61
2022/08/20 06:16:46;;;;;;;1.40;1.40;;;21.60;99.90;;;;;;5033084;28;20255;-61
2022/08/20 06:19:13;;;;;;;1.67;1.60;;;21.60;99.90;;;;;;5031304;28;20290;-62
2022/08/20 06:21:40;;;;;;;1.43;1.43;;;21.60;99.90;;;;;;5030154;28;20639;-60
2022/08/20 06:24:08;;;;;;;1.47;1.40;;;21.50;99.90;;;;;;5032601;28;20220;-60
2022/08/20 06:26:36;;;;;;;1.53;1.50;;;21.50;99.90;;;;;;5032536;28;20287;-61
2022/08/20 06:29:04;;;;;;;1.60;1.50;;;21.50;99.90;;;;;;5028556;28;20718;-61
2022/08/20 06:31:33;;;;;;;1.45;1.45;;;21.60;99.90;;;;;;5029364;28;20677;-61
2022/08/20 06:34:00;;;;;;;1.60;1.50;;;21.70;99.90;;;;;;5032275;28;20232;-62
2022/08/20 06:36:27;;;;;;;1.20;1.20;;;21.80;99.90;;;;;;5031287;28;20196;-61
2022/08/20 06:38:54;;;;;;;1.30;1.30;;;21.80;99.90;;;;;;5032069;28;20217;-61
2022/08/20 06:41:21;;;;;;;1.27;1.27;;;21.80;99.90;;;;;;5032476;28;20216;-61
2022/08/20 06:43:50;;;;;;;1.30;1.30;;;21.70;99.90;;;;;;5031510;28;20207;-62
2022/08/20 06:46:17;;;;;;;1.23;1.17;;;21.80;99.90;;;;;;5031269;28;20660;-62
2022/08/20 06:48:45;;;;;;;1.23;1.23;;;21.80;99.90;;;;;;5030502;28;20235;-61
2022/08/20 06:51:12;;;;;;;1.10;1.10;;;21.70;99.90;;;;;;5032378;28;20201;-59
2022/08/20 06:53:39;;;;;;;1.10;1.10;;;21.70;99.90;;;;;;5031924;28;20292;-61
2022/08/20 06:56:06;;;;;;;1.10;1.10;;;21.70;99.90;;;;;;5031680;28;20274;-61
2022/08/20 06:58:33;;;;;;;1.00;1.00;;;21.60;99.90;;;;;;5032185;28;20220;-61
2022/08/20 07:01:00;;;;;;;1.17;1.10;;;21.60;99.90;;;;;;5032232;28;20209;-60
2022/08/20 07:03:27;;;;;;;1.17;1.17;;;21.70;99.90;;;;;;5031850;28;20530;-60
2022/08/20 07:05:56;;;;;;;1.20;1.20;;;21.60;99.90;;;;;;5031637;28;20291;-60
2022/08/20 07:08:23;;;;;;;0.97;0.97;;;21.60;99.90;;;;;;5031795;28;20252;-61
2022/08/20 07:10:51;;;;;;;1.10;1.10;;;21.50;99.90;;;;;;5032193;28;20292;-61
2022/08/20 07:13:18;;;;;;;0.97;0.97;;;21.50;99.90;;;;;;5033136;28;20678;-61
2022/08/20 07:15:45;;;;;;;1.00;1.00;;;21.40;99.90;;;;;;5033203;28;20209;-60
2022/08/20 07:18:13;;;;;;;1.10;1.10;;;21.50;99.90;;;;;;5032941;28;20227;-61
2022/08/20 07:20:40;;;;;;;1.03;1.03;;;21.50;99.90;;;;;;5031920;28;20619;-61
2022/08/20 07:23:10;;;;;;;1.20;1.20;;;21.50;99.90;;;;;;5032198;28;20659;-61
2022/08/20 07:25:38;;;;;;;1.10;1.10;;;21.50;99.90;;;;;;5018830;28;20200;-61
2022/08/20 07:28:08;;;;;;;1.30;1.20;;;21.50;99.90;;;;;;5031449;28;20699;-61
2022/08/20 07:33:20;;;;;;;1.80;1.70;;;21.70;99.90;;;;;;5031789;28;20288;-61
2022/08/20 07:35:47;;;;;;;1.33;1.33;;;21.80;99.90;;;;;;5031185;28;20201;-61
2022/08/20 07:38:23;;;;;;;1.10;1.10;;;21.80;99.90;;;;;;5031382;28;20304;-61
2022/08/20 07:40:50;;;;;;;1.00;1.00;;;21.80;99.90;;;;;;5030887;28;20232;-59
2022/08/20 07:43:17;;;;;;;1.10;1.10;;;21.80;99.90;;;;;;5031475;28;20646;-62
2022/08/20 07:45:44;;;;;;;1.10;1.10;;;22.00;99.90;;;;;;5031216;28;20283;-62
2022/08/20 07:48:13;;;;;;;1.30;1.20;;;22.10;99.90;;;;;;5031069;28;20230;-60
2022/08/20 07:50:41;;;;;;;1.30;1.30;;;22.10;99.90;;;;;;5030113;28;20662;-60
2022/08/20 07:53:08;;;;;;;1.10;1.10;;;22.10;99.90;;;;;;5031296;28;20243;-60
2022/08/20 07:55:36;;;;;;;1.00;1.00;;;22.10;99.90;;;;;;5030344;28;20243;-60
2022/08/20 07:58:07;;;;;;;0.90;0.90;;;22.00;99.90;;;;;;5031407;28;20581;-62
2022/08/20 08:00:34;;;;;;;1.00;1.00;;;22.00;99.90;;;;;;5020238;28;20196;-62
2022/08/20 08:03:01;;;;;;;1.00;1.00;;;22.00;99.90;;;;;;5023264;28;20714;-62
2022/08/20 08:05:28;;;;;;;1.07;1.07;;;22.00;99.90;;;;;;5025214;28;20205;-60
2022/08/20 08:07:57;;;;;;;1.10;1.10;;;21.90;99.90;;;;;;5030855;28;20197;-61
2022/08/20 08:10:25;;;;;;;1.00;1.00;;;21.80;99.90;;;;;;5030701;28;20201;-60
2022/08/20 08:12:56;;;;;;;1.00;1.00;;;21.70;99.90;;;;;;5030860;28;20568;-62
2022/08/20 08:15:27;;;;;;;1.07;1.07;;;21.60;99.90;;;;;;5036724;28;20789;-60
2022/08/20 08:17:56;;;;;;;1.00;1.00;;;21.50;99.90;;;;;;5032590;28;20630;-60
2022/08/20 08:20:23;;;;;;;0.90;0.90;;;21.50;99.90;;;;;;5032676;28;20659;-59
2022/08/20 08:22:52;;;;;;;1.23;1.20;;;21.50;99.90;;;;;;5031701;28;20719;-60
2022/08/20 08:25:19;;;;;;;0.90;0.90;;;21.50;99.90;;;;;;5034594;28;20631;-61
2022/08/20 08:27:47;;;;;;;0.87;0.87;;;21.40;99.90;;;;;;5034885;28;20213;-61
2022/08/20 08:30:17;;;;;;;1.10;1.10;;;21.50;99.90;;;;;;5037363;28;20205;-61
2022/08/20 08:35:25;;;;;;;1.13;1.13;;;21.60;99.90;;;;;;5033144;28;20255;-61
2022/08/20 08:37:53;;;;;;;1.23;1.13;;;21.60;99.90;;;;;;5034089;28;20727;-61
2022/08/20 08:40:20;;;;;;;0.80;0.80;;;21.60;99.90;;;;;;5037072;28;20215;-61
2022/08/20 08:42:54;;;;;;;1.00;1.00;;;21.60;99.90;;;;;;5035674;28;20258;-62
2022/08/20 08:45:22;;;;;;;1.00;1.00;;;21.60;99.90;;;;;;5034005;28;20669;-61
2022/08/20 08:47:49;;;;;;;0.90;0.90;;;21.60;99.90;;;;;;5033968;28;20196;-61
2022/08/20 08:50:22;;;;;;;0.80;0.80;;;21.60;99.90;;;;;;5032731;28;20221;-61
2022/08/20 08:52:52;;;;;;;0.90;0.90;;;21.70;99.90;;;;;;5033945;28;20208;-61
2022/08/20 08:55:21;;;;;;;0.65;0.65;;;21.70;99.90;;;;;;5035919;28;20231;-60
2022/08/20 08:57:49;;;;;;;0.90;0.90;;;21.70;99.90;;;;;;5036146;28;20215;-60
2022/08/20 09:00:20;;;;;;;0.97;0.97;;;21.70;99.90;;;;;;5033942;28;20193;-60
2022/08/20 09:02:59;;;;;;;0.88;0.88;;;21.80;99.90;;;;;;5036514;28;20582;-60
2022/08/20 09:05:31;;;;;;;0.70;0.70;;;21.90;99.90;;;;;;5033545;28;20236;-60
2022/08/20 09:08:01;;;;;;;0.90;0.90;;;22.00;99.90;;;;;;5036046;28;20651;-60
2022/08/20 09:10:28;;;;;;;0.73;0.73;;;22.10;99.90;;;;;;5033331;28;20671;-60
2022/08/20 09:12:55;;;;;;;0.70;0.70;;;22.30;99.90;;;;;;5033570;28;20201;-60
2022/08/20 09:15:22;;;;;;;0.80;0.80;;;22.50;99.90;;;;;;5036008;28;20286;-60
2022/08/20 09:17:49;;;;;;;0.63;0.63;;;22.50;99.90;;;;;;5033631;28;20207;-60
2022/08/20 09:20:18;;;;;;;0.70;0.70;;;22.50;99.90;;;;;;5032329;28;20283;-60
2022/08/20 09:22:45;;;;;;;0.45;0.45;;;22.40;99.90;;;;;;5033463;28;20203;-60
2022/08/20 09:25:11;;;;;;;0.70;0.70;;;22.20;99.90;;;;;;5033306;28;20205;-60
2022/08/20 09:27:38;;;;;;;0.80;0.80;;;22.10;99.90;;;;;;5035475;28;20299;-60
2022/08/20 09:30:07;;;;;;;1.10;1.00;;;22.10;99.90;;;;;;5034805;28;20238;-60
2022/08/20 09:32:34;;;;;;;0.67;0.67;;;21.90;99.90;;;;;;5033702;28;20659;-60
2022/08/20 09:35:01;;;;;;;0.83;0.83;;;21.90;99.90;;;;;;5032494;28;20205;-60
2022/08/20 09:37:30;;;;;;;0.67;0.67;;;21.90;99.90;;;;;;5034347;28;20197;-60
2022/08/20 09:39:58;;;;;;;0.60;0.60;;;21.90;99.90;;;;;;5042127;28;20225;-60
2022/08/20 09:42:28;;;;;;;0.67;0.67;;;21.90;99.90;;;;;;5031263;28;20201;-60
2022/08/20 09:44:55;;;;;;;0.70;0.70;;;21.90;99.90;;;;;;5035412;28;20200;-60
2022/08/20 09:47:22;;;;;;;0.63;0.63;;;22.00;99.90;;;;;;5032967;28;20809;-60
2022/08/20 09:49:49;;;;;;;0.93;0.68;;;22.10;99.90;;;;;;5031279;28;20230;-60
2022/08/20 09:52:21;;;;;;;0.70;0.70;;;22.30;99.90;;;;;;5034104;28;20201;-60
2022/08/20 09:54:51;;;;;;;0.70;0.70;;;22.40;99.90;;;;;;5030230;28;20600;-60
2022/08/20 09:57:19;;;;;;;0.70;0.70;;;22.40;99.90;;;;;;5032693;28;20212;-60
2022/08/20 09:59:51;;;;;;;0.60;0.60;;;22.60;99.90;;;;;;5032502;28;20220;-60
2022/08/20 10:02:18;;;;;;;0.50;0.50;;;22.70;99.90;;;;;;5033537;28;20280;-61
2022/08/20 10:04:45;;;;;;;0.70;0.70;;;22.70;99.90;;;;;;5034578;28;20197;-61
2022/08/20 10:07:12;;;;;;;0.70;0.70;;;22.80;99.90;;;;;;5032562;28;20287;-61
2022/08/20 10:09:39;;;;;;;0.70;0.70;;;22.80;99.90;;;;;;5033342;28;20228;-61
2022/08/20 10:12:08;;;;;;;0.80;0.80;;;22.70;99.90;;;;;;5032412;28;20204;-62
2022/08/20 10:14:35;;;;;;;1.10;1.00;;;22.50;99.90;;;;;;5031473;28;20205;-61
2022/08/20 10:17:02;;;;;;;0.63;0.63;;;22.30;99.90;;;;;;5037714;28;20236;-61
2022/08/20 10:19:30;;;;;;;1.23;0.87;;;22.10;99.90;;;;;;5031943;28;20343;-61
2022/08/20 10:21:58;;;;;;;0.80;0.80;;;22.10;99.90;;;;;;5031613;28;20223;-61
2022/08/20 10:24:25;;;;;;;0.80;0.80;;;22.20;99.90;;;;;;5031769;28;20404;-61
2022/08/20 10:26:55;;;;;;;0.70;0.70;;;22.30;99.90;;;;;;5032817;28;20209;-61
2022/08/20 10:29:23;;;;;;;0.60;0.60;;;22.40;99.90;;;;;;5031994;28;20646;-61
2022/08/20 10:31:50;;;;;;;0.60;0.60;;;22.30;99.90;;;;;;5032717;28;20197;-62
2022/08/20 10:34:17;;;;;;;0.80;0.80;;;22.30;99.90;;;;;;5035191;28;20201;-61
2022/08/20 10:36:44;;;;;;;0.70;0.70;;;22.30;99.90;;;;;;5036314;28;20201;-59
2022/08/20 10:39:11;;;;;;;0.70;0.70;;;22.50;99.90;;;;;;5022382;28;20228;-61
2022/08/20 10:41:38;;;;;;;1.80;1.70;;;22.70;99.90;;;;;;5030530;28;20754;-62
2022/08/20 10:44:06;;;;;;;1.20;1.20;;;22.80;99.90;;;;;;5032106;28;20207;-60
2022/08/20 10:46:35;;;;;;;0.65;0.65;;;22.70;99.90;;;;;;5030080;28;20615;-61
2022/08/20 10:49:02;;;;;;;0.80;0.80;;;22.70;99.90;;;;;;5032218;28;20335;-61
2022/08/20 10:51:29;;;;;;;0.60;0.60;;;22.80;99.90;;;;;;5030697;28;20660;-61
2022/08/20 10:53:56;;;;;;;0.70;0.70;;;22.90;99.90;;;;;;5029937;28;20205;-61
2022/08/20 10:56:23;;;;;;;0.70;0.70;;;23.10;99.90;;;;;;5030905;28;20204;-61
2022/08/20 10:58:50;;;;;;;0.60;0.60;;;23.20;99.90;;;;;;5031959;28;20220;-61
2022/08/20 11:01:17;;;;;;;0.60;0.60;;;23.30;99.90;;;;;;5030405;28;20228;-61
2022/08/20 11:03:45;;;;;;;0.80;0.80;;;23.30;99.90;;;;;;5032156;28;20207;-61
2022/08/20 11:06:12;;;;;;;0.93;0.93;;;23.40;99.90;;;;;;5034626;28;20291;-61
2022/08/20 11:08:39;;;;;;;0.80;0.80;;;23.50;99.90;;;;;;5031590;28;20228;-61
2022/08/20 11:11:06;;;;;;;0.60;0.60;;;23.80;99.90;;;;;;5029700;28;20286;-61
2022/08/20 11:13:33;;;;;;;0.70;0.70;;;24.10;99.90;;;;;;5034805;28;20211;-61
2022/08/20 11:16:01;;;;;;;0.80;0.80;;;24.20;99.90;;;;;;5033735;28;20283;-60
2022/08/20 11:18:28;;;;;;;1.47;0.80;;;24.10;99.90;;;;;;5033446;28;20225;-61
2022/08/20 11:20:57;;;;;;;0.70;0.70;;;24.00;99.90;;;;;;5031730;28;20201;-60
2022/08/20 11:23:24;;;;;;;0.80;0.80;;;23.90;99.90;;;;;;5032052;28;20219;-60
2022/08/20 11:25:51;;;;;;;0.80;0.80;;;23.80;99.90;;;;;;5030329;28;20598;-60
2022/08/20 11:28:18;;;;;;;0.80;0.80;;;23.80;99.90;;;;;;5035543;28;20314;-60
2022/08/20 11:30:46;;;;;;;0.82;0.80;;;23.90;99.90;;;;;;5030883;28;20251;-60
2022/08/20 11:33:13;;;;;;;0.70;0.70;;;24.10;99.90;;;;;;5030405;28;20566;-60
2022/08/20 11:35:40;;;;;;;0.57;0.57;;;24.40;99.90;;;;;;5032620;28;20212;-60
2022/08/20 11:38:08;;;;;;;0.70;0.70;;;24.70;99.90;;;;;;5028555;28;20311;-60
2022/08/20 11:40:35;;;;;;;0.63;0.63;;;24.90;99.90;;;;;;5028347;28;20231;-60
2022/08/20 11:43:02;;;;;;;0.50;0.50;;;24.80;99.90;;;;;;5030764;28;20254;-60
2022/08/20 11:45:29;;;;;;;0.70;0.70;;;24.80;99.90;;;;;;5030557;28;20283;-60
2022/08/20 11:47:55;;;;;;;0.60;0.60;;;24.70;99.90;;;;;;5033042;28;20319;-60
2022/08/20 11:50:22;;;;;;;0.63;0.63;;;24.70;99.90;;;;;;5037329;28;20709;-60
2022/08/20 11:52:50;;;;;;;0.75;0.75;;;24.80;99.90;;;;;;5033880;28;20205;-60
2022/08/20 11:55:18;;;;;;;0.60;0.60;;;25.00;99.90;;;;;;5035296;28;20302;-60
2022/08/20 11:57:47;;;;;;;0.70;0.70;;;25.30;99.90;;;;;;5035127;28;20205;-60
2022/08/20 12:00:19;;;;;;;0.60;0.60;;;25.50;99.90;;;;;;5035381;28;20201;-60
2022/08/20 12:02:46;;;;;;;0.60;0.60;;;25.90;99.90;;;;;;5026014;28;20283;-62
2022/08/20 12:05:13;;;;;;;2.30;1.00;;;26.10;99.90;;;;;;5030142;28;20200;-62
2022/08/20 12:07:40;;;;;;;0.63;0.63;;;26.10;99.90;;;;;;5030242;28;20291;-62
2022/08/20 12:10:08;;;;;;;0.60;0.60;;;26.00;99.90;;;;;;5033394;28;20249;-61
2022/08/20 12:12:37;;;;;;;0.60;0.60;;;25.60;99.90;;;;;;5033696;28;20236;-60
2022/08/20 12:15:06;;;;;;;0.50;0.50;;;25.50;99.90;;;;;;5031376;28;20735;-60
2022/08/20 12:17:41;;;;;;;0.45;0.45;;;25.40;99.90;;;;;;5031632;28;20205;-60
2022/08/20 12:20:11;;;;;;;0.68;0.68;;;25.20;99.90;;;;;;5035965;28;20742;-62
2022/08/20 12:22:38;;;;;;;0.60;0.60;;;25.30;99.90;;;;;;5037387;28;20262;-61
2022/08/20 12:25:07;;;;;;;0.70;0.70;;;25.50;99.90;;;;;;5036919;28;20272;-60
2022/08/20 12:27:35;;;;;;;0.38;0.38;;;25.70;99.90;;;;;;5035024;28;20723;-60
2022/08/20 12:30:06;;;;;;;0.50;0.50;;;26.00;99.90;;;;;;5037080;28;20232;-61
2022/08/20 12:32:34;;;;;;;0.50;0.50;;;26.20;99.90;;;;;;5038947;28;20231;-59
2022/08/20 12:35:02;;;;;;;0.63;0.63;;;26.40;99.90;;;;;;5030338;28;20514;-62
2022/08/20 12:37:30;;;;;;;0.60;0.60;;;26.50;99.90;;;;;;5034064;28;20209;-61
2022/08/20 12:39:59;;;;;;;0.52;0.52;;;26.60;99.90;;;;;;5034924;28;20279;-60
2022/08/20 12:42:29;;;;;;;0.52;0.52;;;26.90;99.90;;;;;;5035990;28;20707;-62
2022/08/20 12:44:56;;;;;;;0.60;0.60;;;27.10;99.90;;;;;;5036526;28;20201;-61
2022/08/20 12:47:27;;;;;;;0.70;0.70;;;27.40;99.90;;;;;;5034153;28;20557;-61
2022/08/20 12:49:55;;;;;;;0.50;0.50;;;27.50;99.90;;;;;;5035040;28;20221;-61
2022/08/20 12:52:24;;;;;;;0.50;0.50;;;27.60;99.90;;;;;;5033038;28;20205;-61
2022/08/20 12:54:51;;;;;;;0.50;0.50;;;27.50;99.90;;;;;;5031835;28;20204;-60
2022/08/20 12:57:25;;;;;;;0.40;0.40;;;27.70;99.90;;;;;;5038434;28;20239;-61
2022/08/20 12:59:52;;;;;;;0.80;0.80;;;27.80;99.90;;;;;;5031471;28;20220;-62
2022/08/20 13:02:19;;;;;;;0.35;0.35;;;27.90;99.90;;;;;;5029873;28;20235;-61